Time;durP1;ratioP1;P1;durP2;ratioP2;P2;SDS_P1;SDS_P2;PMS_P1;PMS_P2;Temp;Humidity;BMP_temperature;BMP_pressure;BME280_temperature;BME280_humidity;BME280_pressure;Samples;Min_cycle;Max_cycle;Signal;HPM_P1;HPM_P2
2022/08/14 00:02:23;;;;;;;9.73;8.80;;;;;;;16.30;74.79;94230.41;5019128;28;20068;-87
2022/08/14 00:04:48;;;;;;;9.90;8.70;;;;;;;16.47;74.51;94238.94;5069039;28;20086;-85
2022/08/14 00:07:14;;;;;;;9.75;8.75;;;;;;;16.60;74.72;94266.34;5019541;28;20471;-87
2022/08/14 00:09:43;;;;;;;9.45;7.95;;;;;;;16.23;74.78;94216.34;5037159;28;20021;-86
2022/08/14 00:12:09;;;;;;;9.48;8.57;;;;;;;16.34;75.21;94236.09;5035678;28;20029;-88
2022/08/14 00:14:34;;;;;;;10.40;9.32;;;;;;;16.03;75.44;94226.50;5034376;28;20030;-79
2022/08/14 00:17:00;;;;;;;10.30;9.25;;;;;;;16.20;76.36;94234.25;5047364;28;20051;-88
2022/08/14 00:19:25;;;;;;;10.57;9.45;;;;;;;16.35;76.66;94236.91;5021798;28;20068;-79
2022/08/14 00:21:51;;;;;;;11.23;9.93;;;;;;;16.56;77.21;94267.72;5037239;28;20402;-88
2022/08/14 00:24:20;;;;;;;12.82;10.05;;;;;;;16.07;77.84;94206.00;5036698;28;20033;-87
2022/08/14 00:26:45;;;;;;;10.40;9.27;;;;;;;16.11;76.56;94214.34;5036459;28;20120;-88
2022/08/14 00:29:11;;;;;;;10.73;9.43;;;;;;;16.21;77.04;94218.34;5072021;28;20562;-88
2022/08/14 00:31:36;;;;;;;9.65;8.52;;;;;;;16.32;75.16;94259.03;5035042;28;20047;-87
2022/08/14 00:34:02;;;;;;;10.23;9.25;;;;;;;16.45;75.64;94276.81;5021821;28;20039;-88
2022/08/14 00:36:28;;;;;;;9.32;8.43;;;;;;;16.36;75.66;94257.72;5022296;28;20521;-87
2022/08/14 00:38:53;;;;;;;10.63;9.55;;;;;;;16.38;75.32;94249.66;5020502;28;20095;-87
2022/08/14 00:41:19;;;;;;;9.40;8.40;;;;;;;16.58;75.77;94268.34;5034886;28;20040;-87
2022/08/14 00:43:45;;;;;;;10.48;9.48;;;;;;;16.50;75.92;94243.84;5054651;28;20502;-87
2022/08/14 00:46:10;;;;;;;11.30;8.88;;;;;;;16.64;75.54;94255.34;5019600;28;20110;-88
2022/08/14 00:48:36;;;;;;;9.60;8.60;;;;;;;16.61;76.18;94250.47;5031321;28;20025;-88
2022/08/14 00:51:03;;;;;;;9.52;8.52;;;;;;;16.26;77.10;94209.94;5001898;28;20029;-88
2022/08/14 00:53:28;;;;;;;12.68;9.13;;;;;;;16.24;77.06;94201.44;5021691;28;20071;-87
2022/08/14 00:55:56;;;;;;;11.30;9.00;;;;;;;16.59;76.35;94251.63;5021773;28;20060;-87
2022/08/14 00:58:31;;;;;;;9.57;8.25;;;;;;;16.46;76.56;94216.31;5038960;28;20031;-87
2022/08/14 01:01:02;;;;;;;9.52;8.52;;;;;;;16.34;76.47;94195.97;5053991;28;20438;-88
2022/08/14 01:03:28;;;;;;;10.68;8.60;;;;;;;16.11;76.50;94164.56;5038946;28;20039;-88
2022/08/14 01:05:56;;;;;;;10.48;9.27;;;;;;;16.58;76.83;94242.13;5038178;28;20035;-88
2022/08/14 01:08:27;;;;;;;10.48;9.38;;;;;;;16.08;76.93;94182.25;5053335;28;20131;-87
2022/08/14 01:10:53;;;;;;;11.52;9.20;;;;;;;16.38;77.02;94226.06;5035011;28;20064;-87
2022/08/14 01:13:21;;;;;;;12.82;8.68;;;;;;;16.43;76.81;94227.16;5034797;28;20040;-88
2022/08/14 01:15:49;;;;;;;9.63;8.63;;;;;;;16.19;77.24;94188.09;5018740;28;20021;-88
2022/08/14 01:21:10;;;;;;;10.05;9.02;;;;;;;16.17;77.31;94201.34;5037293;28;20036;-87
2022/08/14 01:23:38;;;;;;;10.73;9.63;;;;;;;16.40;77.03;94230.16;5005765;28;20124;-87
2022/08/14 01:26:04;;;;;;;10.57;8.88;;;;;;;16.30;77.14;94211.25;5038177;28;20474;-87
2022/08/14 01:28:30;;;;;;;10.18;8.82;;;;;;;16.19;77.14;94193.31;5021617;28;20020;-87
2022/08/14 01:30:56;;;;;;;9.48;8.55;;;;;;;16.09;77.05;94167.34;5012627;28;20098;-88
2022/08/14 01:33:28;;;;;;;12.40;9.00;;;;;;;16.33;77.10;94203.03;5050747;28;20546;-87
2022/08/14 01:35:59;;;;;;;9.43;8.38;;;;;;;16.22;77.16;94185.91;5002625;28;20471;-87
2022/08/14 01:38:30;;;;;;;10.43;9.32;;;;;;;16.28;76.92;94185.19;5001956;28;20027;-88
2022/08/14 01:40:55;;;;;;;9.32;8.43;;;;;;;16.20;77.04;94169.53;5019799;28;20029;-87
2022/08/14 01:43:21;;;;;;;9.45;8.40;;;;;;;16.51;77.03;94227.09;5000767;28;20116;-87
2022/08/14 01:45:50;;;;;;;10.68;8.10;;;;;;;16.25;76.61;94176.88;5042582;28;20035;-87
2022/08/14 01:48:16;;;;;;;8.98;8.07;;;;;;;16.37;76.38;94217.41;5038298;28;20409;-87
2022/08/14 01:50:42;;;;;;;9.38;8.32;;;;;;;16.45;75.90;94214.72;5037275;28;20020;-85
2022/08/14 01:53:08;;;;;;;11.35;8.40;;;;;;;16.44;75.45;94213.09;5044433;28;20033;-87
2022/08/14 01:55:34;;;;;;;8.65;7.68;;;;;;;16.67;74.76;94225.34;5017450;28;20029;-86
2022/08/14 01:58:00;;;;;;;8.63;7.78;;;;;;;16.42;74.24;94175.75;5017677;28;20074;-87
2022/08/14 02:00:25;;;;;;;8.65;7.75;;;;;;;16.30;74.31;94162.25;5004676;28;20149;-82
2022/08/14 02:02:51;;;;;;;8.68;7.70;;;;;;;16.65;74.68;94224.69;5053406;28;20506;-87
2022/08/14 02:05:17;;;;;;;9.10;7.93;;;;;;;16.42;75.04;94186.22;5036932;28;20024;-87
2022/08/14 02:07:45;;;;;;;8.73;7.88;;;;;;;16.51;75.36;94198.25;5053583;28;20033;-88
2022/08/14 02:10:11;;;;;;;9.27;8.35;;;;;;;16.59;75.21;94209.69;5051929;28;20031;-88
2022/08/14 02:12:37;;;;;;;11.75;7.82;;;;;;;16.15;75.93;94161.41;5033129;28;20033;-87
2022/08/14 02:15:08;;;;;;;10.85;8.40;;;;;;;16.45;75.86;94203.41;5036774;28;20024;-86
2022/08/14 02:17:33;;;;;;;9.52;8.43;;;;;;;16.34;75.66;94186.31;5016915;28;20060;-87
2022/08/14 02:19:59;;;;;;;11.10;8.07;;;;;;;16.04;76.23;94165.25;5020500;28;20064;-82
2022/08/14 02:22:25;;;;;;;9.00;8.10;;;;;;;16.19;76.14;94198.56;5036340;28;20041;-87
2022/08/14 02:24:50;;;;;;;8.82;7.93;;;;;;;16.18;76.30;94183.81;5026610;28;20486;-85
2022/08/14 02:27:17;;;;;;;9.30;8.27;;;;;;;16.14;76.42;94183.34;5013420;28;20091;-86
2022/08/14 02:29:42;;;;;;;8.98;8.07;;;;;;;16.20;76.74;94192.31;5052230;28;20434;-85
2022/08/14 02:32:09;;;;;;;8.65;7.85;;;;;;;16.13;76.80;94175.66;5028517;28;20040;-87
2022/08/14 02:34:35;;;;;;;8.57;7.78;;;;;;;15.87;76.63;94148.03;5037159;28;20033;-86
2022/08/14 02:37:10;;;;;;;9.23;8.18;;;;;;;16.06;76.41;94186.84;5012629;28;20052;-87
2022/08/14 02:39:42;;;;;;;11.20;7.55;;;;;;;16.16;76.39;94198.88;5016014;28;20028;-87
2022/08/14 02:42:13;;;;;;;12.27;8.05;;;;;;;15.77;76.45;94137.81;4999118;28;20047;-87
2022/08/14 02:44:40;;;;;;;9.05;7.90;;;;;;;16.22;76.26;94214.75;5049169;28;20077;-87
2022/08/14 02:47:07;;;;;;;9.23;8.32;;;;;;;15.91;76.46;94174.69;5027761;28;20148;-87
2022/08/14 02:49:33;;;;;;;8.88;7.97;;;;;;;15.82;76.92;94151.19;5053424;28;20051;-86
2022/08/14 02:51:59;;;;;;;9.82;8.63;;;;;;;15.90;76.80;94160.78;5034942;28;20082;-87
2022/08/14 02:54:25;;;;;;;9.50;8.50;;;;;;;15.71;76.54;94128.03;5070445;28;20025;-84
2022/08/14 02:56:53;;;;;;;9.93;8.40;;;;;;;15.82;76.68;94150.38;5034805;28;20486;-87
2022/08/14 02:59:18;;;;;;;9.23;8.25;;;;;;;15.81;76.46;94135.66;5017825;28;20036;-87
2022/08/14 03:01:44;;;;;;;11.88;9.25;;;;;;;16.15;76.59;94181.53;5022740;28;20426;-87
2022/08/14 03:04:10;;;;;;;10.43;8.52;;;;;;;16.15;76.53;94178.94;5069402;28;20112;-87
2022/08/14 03:06:37;;;;;;;10.07;9.07;;;;;;;16.12;76.39;94174.03;5026166;28;20029;-87
2022/08/14 03:09:03;;;;;;;8.45;7.63;;;;;;;16.07;76.70;94156.22;5033301;28;20342;-87
2022/08/14 03:11:29;;;;;;;11.27;9.65;;;;;;;15.99;76.84;94158.91;5049472;28;20032;-88
2022/08/14 03:13:54;;;;;;;12.70;8.88;;;;;;;15.98;76.60;94155.47;5032647;28;20553;-88
2022/08/14 03:16:24;;;;;;;11.45;9.40;;;;;;;16.38;76.63;94205.94;5013963;28;20047;-87
2022/08/14 03:18:52;;;;;;;10.90;8.57;;;;;;;16.13;77.03;94179.13;5034228;28;20057;-87
2022/08/14 03:21:19;;;;;;;11.52;9.93;;;;;;;16.00;76.41;94153.50;5036830;28;20112;-87
2022/08/14 03:23:45;;;;;;;10.63;9.52;;;;;;;16.33;75.84;94197.78;5052959;28;20452;-87
2022/08/14 03:26:13;;;;;;;13.32;9.57;;;;;;;16.12;76.07;94174.84;5036113;28;20034;-87
2022/08/14 03:28:40;;;;;;;10.55;9.32;;;;;;;16.09;75.86;94162.91;5033437;28;20568;-87
2022/08/14 03:31:05;;;;;;;11.40;9.15;;;;;;;16.12;75.96;94174.84;5036251;28;20486;-87
2022/08/14 03:33:31;;;;;;;14.18;9.43;;;;;;;15.83;76.31;94133.69;5018806;28;20037;-87
2022/08/14 03:35:58;;;;;;;10.07;8.93;;;;;;;16.12;76.66;94163.56;5032094;28;20036;-88
2022/08/14 03:38:24;;;;;;;12.43;10.95;;;;;;;16.39;77.21;94223.28;5065741;28;20029;-87
2022/08/14 03:40:49;;;;;;;15.63;10.95;;;;;;;16.40;77.33;94209.16;5000140;28;20625;-87
2022/08/14 03:43:15;;;;;;;12.77;9.73;;;;;;;16.27;77.17;94180.16;5016109;28;20053;-87
2022/08/14 03:45:41;;;;;;;11.80;9.90;;;;;;;16.29;78.01;94209.59;5034263;28;20090;-87
2022/08/14 03:48:19;;;;;;;18.05;12.02;;;;;;;16.15;77.88;94176.31;5040734;28;20234;-86
2022/08/14 03:50:46;;;;;;;18.85;13.90;;;;;;;16.56;77.77;94236.25;5016320;28;20423;-87
2022/08/14 03:53:12;;;;;;;15.20;12.35;;;;;;;16.17;77.82;94190.06;5033424;28;20028;-87
2022/08/14 03:55:39;;;;;;;16.13;12.02;;;;;;;16.45;77.98;94219.94;5004546;28;20040;-86
2022/08/14 03:58:07;;;;;;;14.18;11.43;;;;;;;16.33;78.61;94210.88;5032735;28;20415;-87
2022/08/14 04:00:34;;;;;;;17.60;12.20;;;;;;;16.65;78.39;94240.41;5016443;28;20030;-82
2022/08/14 04:03:01;;;;;;;15.73;11.38;;;;;;;16.31;78.21;94186.66;5011407;28;20032;-87
2022/08/14 04:05:26;;;;;;;17.10;11.48;;;;;;;16.58;78.34;94208.88;5028225;28;20040;-87
2022/08/14 04:07:52;;;;;;;12.70;11.05;;;;;;;16.48;78.16;94192.56;5019569;28;20032;-87
2022/08/14 04:10:17;;;;;;;11.65;10.07;;;;;;;16.84;78.18;94244.38;5019504;28;20033;-87
2022/08/14 04:12:43;;;;;;;14.05;11.57;;;;;;;16.86;78.02;94242.41;5037025;28;20086;-86
2022/08/14 04:15:09;;;;;;;15.43;10.85;;;;;;;16.52;77.65;94176.31;5024506;28;20029;-87
2022/08/14 04:17:34;;;;;;;11.88;10.23;;;;;;;16.82;77.68;94210.44;5029203;28;20126;-87
2022/08/14 04:20:04;;;;;;;12.23;9.60;;;;;;;17.03;77.85;94243.03;5060494;28;20064;-86
2022/08/14 04:22:30;;;;;;;12.50;10.82;;;;;;;17.02;77.98;94236.16;5055365;28;20063;-87
2022/08/14 04:24:58;;;;;;;14.13;11.27;;;;;;;16.63;77.65;94190.78;5038850;28;20025;-84
2022/08/14 04:27:23;;;;;;;16.23;11.43;;;;;;;16.39;77.25;94165.63;5025084;28;20048;-87
2022/08/14 04:29:49;;;;;;;13.43;11.02;;;;;;;16.49;76.33;94174.06;5031847;28;20067;-88
2022/08/14 04:32:14;;;;;;;12.98;10.55;;;;;;;16.82;75.45;94228.81;5038869;28;20175;-87
2022/08/14 04:34:40;;;;;;;11.10;9.98;;;;;;;16.63;74.09;94203.06;5003119;28;20029;-87
2022/08/14 04:45:23;;;;;;;14.45;12.43;;;;;;;16.79;75.59;94250.16;5030414;28;20114;-87
2022/08/14 04:50:34;;;;;;;14.70;12.15;;;;;;;16.48;75.83;94180.28;5030700;28;20035;-84
2022/08/14 04:53:03;;;;;;;14.63;11.38;;;;;;;16.88;76.03;94240.38;5018638;28;20037;-84
2022/08/14 04:55:29;;;;;;;17.15;11.50;;;;;;;16.59;76.19;94200.00;5037553;28;20025;-85
2022/08/14 04:57:55;;;;;;;16.98;13.38;;;;;;;16.78;76.14;94229.38;5053233;28;20071;-86
2022/08/14 05:00:21;;;;;;;16.20;13.63;;;;;;;16.71;76.15;94203.00;5037976;28;20028;-86
2022/08/14 05:02:47;;;;;;;14.20;12.20;;;;;;;16.46;76.18;94144.75;5038192;28;20395;-84
2022/08/14 05:05:13;;;;;;;18.17;14.48;;;;;;;16.74;76.72;94176.41;5051423;28;20090;-81
2022/08/14 05:07:38;;;;;;;18.83;14.15;;;;;;;17.05;75.98;94218.25;5052876;28;20446;-82
2022/08/14 05:10:04;;;;;;;16.38;14.57;;;;;;;17.01;75.55;94206.47;5028747;28;20032;-82
2022/08/14 05:12:30;;;;;;;21.00;15.30;;;;;;;17.25;75.43;94236.09;5043692;28;20028;-86
2022/08/14 05:14:56;;;;;;;19.58;15.82;;;;;;;17.08;75.86;94203.97;5021651;28;20068;-85
2022/08/14 05:17:25;;;;;;;20.30;15.57;;;;;;;17.34;75.83;94234.97;5016993;28;20051;-85
2022/08/14 05:19:51;;;;;;;16.48;13.95;;;;;;;17.33;75.84;94228.13;5024829;28;20149;-85
2022/08/14 05:22:18;;;;;;;18.23;14.30;;;;;;;17.29;76.09;94211.09;5034682;28;20040;-85
2022/08/14 05:24:44;;;;;;;18.42;14.52;;;;;;;17.39;76.08;94222.94;5018228;28;20056;-85
2022/08/14 05:27:10;;;;;;;19.65;15.55;;;;;;;17.50;75.94;94236.59;5039185;28;20047;-85
2022/08/14 05:29:35;;;;;;;22.42;17.95;;;;;;;17.25;75.67;94205.41;5000842;28;20037;-86
2022/08/14 05:32:06;;;;;;;20.25;16.08;;;;;;;17.06;75.44;94163.97;5051781;28;20483;-86
2022/08/14 05:34:32;;;;;;;16.95;14.45;;;;;;;17.36;75.25;94204.94;5017674;28;20025;-86
2022/08/14 05:36:59;;;;;;;21.08;16.42;;;;;;;17.23;75.11;94173.25;5017002;28;20048;-86
2022/08/14 05:39:24;;;;;;;20.60;15.65;;;;;;;17.64;75.40;94228.69;5009139;28;20028;-85
2022/08/14 05:41:50;;;;;;;19.08;15.30;;;;;;;17.55;75.79;94211.44;5032222;28;20033;-87
2022/08/14 05:44:16;;;;;;;20.90;15.60;;;;;;;17.21;75.71;94167.38;5030357;28;20511;-84
2022/08/14 05:46:41;;;;;;;18.30;15.57;;;;;;;17.32;75.68;94185.28;5006409;28;20041;-85
2022/08/14 05:49:07;;;;;;;19.45;16.35;;;;;;;17.72;75.39;94230.41;5011134;28;20484;-86
2022/08/14 05:51:32;;;;;;;17.65;15.52;;;;;;;17.52;75.42;94192.56;5002295;28;20038;-86
2022/08/14 05:53:58;;;;;;;18.83;14.07;;;;;;;17.50;76.27;94170.97;4997094;28;20091;-87
2022/08/14 05:56:24;;;;;;;17.92;15.07;;;;;;;17.51;76.00;94178.63;5029509;28;20042;-86
2022/08/14 05:58:50;;;;;;;16.95;14.57;;;;;;;17.74;75.53;94199.50;4994889;28;20033;-87
2022/08/14 06:01:15;;;;;;;17.23;13.93;;;;;;;17.59;75.33;94185.59;5059758;28;20127;-87
2022/08/14 06:03:41;;;;;;;17.30;14.60;;;;;;;17.64;74.63;94185.88;5016284;28;20032;-87
2022/08/14 06:06:07;;;;;;;16.65;14.55;;;;;;;17.62;75.39;94186.03;5032121;28;20036;-86
2022/08/14 06:08:32;;;;;;;16.92;13.85;;;;;;;17.71;75.87;94176.22;5012099;28;20048;-87
2022/08/14 06:11:02;;;;;;;15.52;13.43;;;;;;;18.06;75.75;94240.28;5015410;28;20043;-87
2022/08/14 06:13:37;;;;;;;18.38;13.60;;;;;;;17.90;75.91;94223.94;5049915;28;20406;-87
2022/08/14 06:16:03;;;;;;;16.58;13.93;;;;;;;17.69;75.08;94180.88;5015938;28;20029;-86
2022/08/14 06:18:28;;;;;;;14.90;13.32;;;;;;;18.11;74.99;94247.63;5015535;28;20021;-87
2022/08/14 06:20:54;;;;;;;16.00;14.05;;;;;;;17.94;74.51;94206.81;5051577;28;20483;-87
2022/08/14 06:23:20;;;;;;;14.57;12.93;;;;;;;17.84;74.35;94189.53;5033810;28;20037;-87
2022/08/14 06:25:45;;;;;;;13.60;12.10;;;;;;;17.86;75.08;94190.16;5025075;28;20055;-87
2022/08/14 06:28:18;;;;;;;14.95;13.45;;;;;;;18.04;75.33;94220.44;5003593;28;20520;-87
2022/08/14 06:30:47;;;;;;;15.43;13.88;;;;;;;18.09;74.57;94211.00;5015722;28;20025;-89
2022/08/14 06:33:13;;;;;;;19.02;16.35;;;;;;;17.92;73.27;94191.25;5004253;28;20044;-90
2022/08/14 06:35:45;;;;;;;17.00;15.27;;;;;;;18.34;73.48;94250.06;5009910;28;20423;-86
2022/08/14 06:38:21;;;;;;;17.25;15.45;;;;;;;18.22;75.02;94235.78;5017474;28;20046;-89
2022/08/14 06:40:46;;;;;;;17.90;15.93;;;;;;;17.83;74.69;94172.16;4996595;28;20049;-90
2022/08/14 06:43:12;;;;;;;16.50;14.80;;;;;;;18.41;73.28;94258.81;4987960;28;20509;-90
2022/08/14 06:45:39;;;;;;;17.67;15.75;;;;;;;18.21;73.28;94221.03;4992445;28;20084;-87
2022/08/14 06:48:15;;;;;;;18.85;15.90;;;;;;;18.16;72.71;94194.47;4964052;28;20511;-85
2022/08/14 06:50:41;;;;;;;17.50;15.63;;;;;;;18.35;72.96;94214.06;4996240;28;20033;-88
2022/08/14 06:53:07;;;;;;;19.15;16.05;;;;;;;18.45;72.76;94248.75;5015509;28;20066;-82
2022/08/14 06:55:32;;;;;;;21.27;17.42;;;;;;;17.91;73.37;94204.56;5049290;28;20104;-85
2022/08/14 06:57:58;;;;;;;22.80;18.52;;;;;;;18.18;74.56;94256.38;5011477;28;20093;-83
2022/08/14 07:00:25;;;;;;;20.75;17.95;;;;;;;17.83;75.46;94226.53;4993156;28;20026;-89
2022/08/14 07:05:47;;;;;;;20.52;17.75;;;;;;;17.75;75.60;94184.56;5034513;28;20064;-89
2022/08/14 07:08:21;;;;;;;20.52;17.05;;;;;;;18.07;75.18;94225.34;5005680;28;20029;-89
2022/08/14 07:10:53;;;;;;;21.25;16.80;;;;;;;17.75;75.28;94172.25;4978729;28;20124;-91
2022/08/14 07:13:19;;;;;;;19.77;17.67;;;;;;;18.16;74.56;94220.75;4995035;28;20029;-90
2022/08/14 07:15:47;;;;;;;20.13;17.42;;;;;;;17.76;75.10;94179.13;5010987;28;20518;-90
2022/08/14 07:18:14;;;;;;;21.55;17.13;;;;;;;17.80;74.29;94156.78;5013073;28;20487;-90
2022/08/14 07:20:40;;;;;;;22.52;19.20;;;;;;;18.19;74.08;94205.44;5012264;28;20530;-90
2022/08/14 07:23:09;;;;;;;23.83;19.30;;;;;;;18.18;73.24;94235.34;5011889;28;20030;-90
2022/08/14 07:25:38;;;;;;;25.35;18.85;;;;;;;17.78;75.24;94194.69;4993859;28;20567;-90
2022/08/14 07:28:10;;;;;;;23.95;19.65;;;;;;;18.29;75.81;94266.41;4997078;28;20036;-90
2022/08/14 07:30:38;;;;;;;26.50;18.95;;;;;;;18.12;74.82;94206.38;5031039;28;20083;-91
2022/08/14 07:33:03;;;;;;;24.70;18.67;;;;;;;18.29;74.51;94216.44;4996967;28;20029;-89
2022/08/14 07:35:30;;;;;;;23.45;18.38;;;;;;;18.22;73.72;94181.41;4997869;28;20029;-90
2022/08/14 07:37:55;;;;;;;23.70;18.55;;;;;;;18.30;72.53;94173.41;4998087;28;20089;-90
2022/08/14 07:40:21;;;;;;;23.48;17.75;;;;;;;18.41;72.47;94208.03;4997892;28;20034;-90
2022/08/14 07:42:52;;;;;;;21.88;17.90;;;;;;;18.29;73.17;94208.56;4996952;28;20444;-90
2022/08/14 07:45:18;;;;;;;27.63;19.80;;;;;;;18.15;73.45;94209.44;5012651;28;20099;-90
2022/08/14 07:47:44;;;;;;;22.67;18.77;;;;;;;17.79;73.94;94181.41;4988001;28;20104;-89
2022/08/14 07:50:15;;;;;;;21.50;18.80;;;;;;;17.80;73.85;94190.94;4978615;28;20157;-90
2022/08/14 07:52:42;;;;;;;22.98;17.98;;;;;;;17.75;73.30;94174.06;4998990;28;20151;-90
2022/08/14 07:55:09;;;;;;;20.20;16.42;;;;;;;17.88;73.61;94205.72;4993600;28;20116;-91
2022/08/14 07:57:37;;;;;;;19.85;17.70;;;;;;;18.18;73.36;94224.84;5014404;28;20025;-90
2022/08/14 08:00:10;;;;;;;22.05;18.50;;;;;;;18.30;73.45;94247.00;5027196;28;20025;-90
2022/08/14 08:02:36;;;;;;;21.15;15.73;;;;;;;18.12;73.13;94211.63;4999782;28;20041;-90
2022/08/14 08:05:08;;;;;;;19.23;15.80;;;;;;;18.52;72.82;94265.38;4973102;28;20033;-90
2022/08/14 08:07:34;;;;;;;21.20;16.30;;;;;;;17.99;72.35;94178.16;5001801;28;20026;-90
2022/08/14 08:10:29;;;;;;;18.73;16.40;;;;;;;18.01;72.45;94174.34;5009764;28;20112;-91
2022/08/14 08:12:55;;;;;;;18.65;16.00;;;;;;;18.19;72.98;94197.56;5002008;28;20076;-87
2022/08/14 08:15:35;;;;;;;22.30;16.55;;;;;;;18.23;72.97;94190.91;5005064;28;20044;-92
2022/08/14 08:18:06;;;;;;;20.23;16.75;;;;;;;18.21;73.64;94192.09;4993664;28;20041;-87
2022/08/14 08:20:36;;;;;;;22.10;18.20;;;;;;;17.76;73.18;94149.41;4994340;28;20037;-90
2022/08/14 08:23:08;;;;;;;22.13;18.02;;;;;;;18.36;74.79;94239.34;4996383;28;20021;-90
2022/08/14 08:25:41;;;;;;;21.50;17.13;;;;;;;18.02;74.01;94159.38;5003954;28;20418;-89
2022/08/14 08:28:09;;;;;;;20.25;16.33;;;;;;;18.39;72.41;94217.97;4980084;28;20029;-86
2022/08/14 08:30:41;;;;;;;18.42;15.15;;;;;;;18.19;72.72;94155.50;4981093;28;20029;-88
2022/08/14 08:33:07;;;;;;;16.85;15.10;;;;;;;18.27;73.13;94189.53;4997202;28;20045;-85
2022/08/14 08:35:34;;;;;;;16.17;14.50;;;;;;;18.36;74.18;94206.00;4985140;28;20029;-86
2022/08/14 08:38:07;;;;;;;21.30;15.18;;;;;;;18.04;72.94;94162.66;4998651;28;20025;-91
2022/08/14 08:40:40;;;;;;;16.45;14.70;;;;;;;18.42;72.96;94213.13;4984316;28;20038;-88
2022/08/14 08:43:18;;;;;;;16.80;14.98;;;;;;;18.27;72.88;94157.97;4992038;28;20058;-86
2022/08/14 08:45:59;;;;;;;16.35;14.38;;;;;;;18.91;71.77;94243.06;5017138;28;20033;-91
2022/08/14 08:48:28;;;;;;;16.88;15.07;;;;;;;18.51;70.69;94195.41;5018162;28;20036;-90
2022/08/14 08:50:54;;;;;;;16.25;14.60;;;;;;;18.46;71.56;94174.91;5009951;28;20026;-80
2022/08/14 08:53:20;;;;;;;16.38;14.68;;;;;;;18.77;70.69;94238.72;5015695;28;20033;-86
2022/08/14 08:55:46;;;;;;;17.42;15.48;;;;;;;18.43;71.27;94166.59;5018044;28;20030;-86
2022/08/14 08:58:13;;;;;;;17.02;14.68;;;;;;;18.74;70.80;94226.75;5016519;28;20119;-86
2022/08/14 09:00:40;;;;;;;16.33;14.52;;;;;;;18.42;70.62;94192.09;5034171;28;20060;-86
2022/08/14 09:03:09;;;;;;;14.07;12.68;;;;;;;18.53;70.17;94193.41;5034949;28;20552;-85
2022/08/14 09:05:37;;;;;;;14.73;13.20;;;;;;;18.66;71.29;94227.66;5067104;28;20051;-87
2022/08/14 09:08:10;;;;;;;14.00;12.45;;;;;;;18.53;70.81;94185.50;5013245;28;20051;-87
2022/08/14 09:10:36;;;;;;;14.15;12.70;;;;;;;18.52;69.84;94154.94;5017968;28;20037;-87
2022/08/14 09:13:02;;;;;;;14.88;13.27;;;;;;;19.02;69.99;94203.06;5046270;28;20032;-87
2022/08/14 09:15:30;;;;;;;15.35;13.07;;;;;;;19.38;69.59;94237.06;5029683;28;20111;-86
2022/08/14 09:17:59;;;;;;;14.02;12.63;;;;;;;18.92;68.67;94149.97;5015018;28;20033;-86
2022/08/14 09:20:25;;;;;;;14.48;13.05;;;;;;;19.00;67.57;94147.19;5034329;28;20032;-84
2022/08/14 09:22:54;;;;;;;15.40;13.88;;;;;;;19.08;67.93;94147.00;5031340;28;20426;-89
2022/08/14 09:25:20;;;;;;;14.65;12.52;;;;;;;19.41;67.34;94180.56;5030577;28;20411;-88
2022/08/14 09:27:45;;;;;;;12.93;11.73;;;;;;;19.57;67.08;94184.69;5008945;28;20025;-88
2022/08/14 09:30:11;;;;;;;12.90;11.52;;;;;;;19.28;66.17;94127.84;5023772;28;20071;-89
2022/08/14 09:33:02;;;;;;;12.00;10.82;;;;;;;19.71;65.80;94164.50;5024261;28;20108;-89
2022/08/14 09:35:46;;;;;;;11.65;10.45;;;;;;;20.29;65.92;94226.25;5056931;28;20040;-89
2022/08/14 09:38:27;;;;;;;11.63;10.50;;;;;;;20.12;63.92;94227.66;5055820;28;20086;-89
2022/08/14 09:40:59;;;;;;;10.18;9.27;;;;;;;20.33;64.28;94225.84;5039737;28;20041;-89
2022/08/14 09:43:46;;;;;;;11.80;9.93;;;;;;;20.56;63.11;94214.94;5029895;28;20054;-89
2022/08/14 09:46:12;;;;;;;12.77;10.93;;;;;;;20.22;63.48;94158.69;5049723;28;20279;-87
2022/08/14 09:48:37;;;;;;;10.43;9.43;;;;;;;20.02;64.09;94129.69;5006311;28;20036;-84
2022/08/14 09:51:04;;;;;;;10.23;9.32;;;;;;;20.42;63.05;94162.16;5007361;28;20053;-90
2022/08/14 09:53:42;;;;;;;13.10;10.63;;;;;;;20.50;62.66;94154.03;5010815;28;20029;-89
2022/08/14 09:56:09;;;;;;;10.25;9.30;;;;;;;20.48;60.57;94113.88;5052575;28;20164;-90
2022/08/14 09:58:45;;;;;;;10.63;9.63;;;;;;;20.86;60.98;94173.09;5016511;28;20033;-90
2022/08/14 10:01:15;;;;;;;11.05;9.70;;;;;;;20.45;58.90;94135.38;4987176;28;20495;-90
2022/08/14 10:03:51;;;;;;;10.50;9.35;;;;;;;20.97;60.45;94220.78;5011807;28;20080;-91
2022/08/14 10:06:26;;;;;;;10.15;9.25;;;;;;;20.92;59.07;94225.06;5032227;28;20085;-91
2022/08/14 10:08:53;;;;;;;9.52;8.73;;;;;;;20.79;59.75;94220.63;4996805;28;20037;-86
2022/08/14 10:11:34;;;;;;;9.30;8.40;;;;;;;20.64;61.26;94167.22;5028379;28;20475;-87
2022/08/14 10:14:26;;;;;;;9.10;8.30;;;;;;;20.40;61.21;94151.00;4997179;28;20066;-91
2022/08/14 10:16:55;;;;;;;9.02;8.05;;;;;;;20.66;61.47;94168.66;5055972;28;20029;-87
2022/08/14 10:19:23;;;;;;;8.02;7.22;;;;;;;20.71;60.18;94160.13;5047603;28;20482;-90
2022/08/14 10:22:09;;;;;;;7.93;7.20;;;;;;;20.61;60.68;94123.59;5025462;28;20025;-88
2022/08/14 10:24:45;;;;;;;7.38;6.18;;;;;;;21.18;58.31;94158.22;5005288;28;20033;-88
2022/08/14 10:27:17;;;;;;;8.10;6.22;;;;;;;21.54;57.64;94183.31;5014527;28;20544;-91
2022/08/14 10:29:51;;;;;;;7.00;6.30;;;;;;;21.35;58.46;94132.16;5029632;28;20033;-86
2022/08/14 10:32:17;;;;;;;7.63;6.68;;;;;;;21.37;56.79;94093.97;5023051;28;20518;-91
2022/08/14 10:34:46;;;;;;;7.00;5.75;;;;;;;21.90;57.26;94150.16;5012723;28;20426;-84
2022/08/14 10:37:16;;;;;;;6.40;5.80;;;;;;;22.37;54.72;94185.09;5012758;28;20033;-90
2022/08/14 10:39:43;;;;;;;6.07;5.57;;;;;;;22.46;55.32;94171.41;5015208;28;20070;-82
2022/08/14 10:42:10;;;;;;;6.45;5.60;;;;;;;22.66;54.70;94175.72;5030173;28;20033;-84
2022/08/14 10:44:46;;;;;;;6.60;6.00;;;;;;;22.87;54.99;94170.03;5050119;28;20045;-85
2022/08/14 10:47:12;;;;;;;7.55;6.75;;;;;;;22.98;53.55;94168.50;5045933;28;20025;-83
2022/08/14 10:49:48;;;;;;;7.07;6.00;;;;;;;22.96;53.29;94152.06;5032766;28;20566;-83
2022/08/14 10:52:29;;;;;;;7.03;6.25;;;;;;;22.70;52.61;94106.22;5037362;28;20040;-86
2022/08/14 10:55:13;;;;;;;7.25;6.60;;;;;;;22.85;53.68;94132.38;5047880;28;20410;-86
2022/08/14 10:58:10;;;;;;;6.95;6.35;;;;;;;23.03;53.83;94157.25;5015005;28;20094;-88
2022/08/14 11:00:36;;;;;;;7.38;6.68;;;;;;;22.55;54.82;94121.66;5038981;28;20053;-86
2022/08/14 11:03:08;;;;;;;9.13;6.68;;;;;;;22.69;55.40;94136.38;5033335;28;20033;-87
2022/08/14 11:05:52;;;;;;;7.32;5.78;;;;;;;22.54;55.10;94120.03;5025183;28;20039;-85
2022/08/14 11:08:28;;;;;;;7.00;6.15;;;;;;;22.48;55.23;94126.19;5020730;28;20070;-85
2022/08/14 11:10:56;;;;;;;7.30;6.70;;;;;;;22.37;55.51;94113.66;5045697;28;20131;-86
2022/08/14 11:13:26;;;;;;;7.68;5.95;;;;;;;22.36;54.68;94117.34;5031884;28;20037;-83
2022/08/14 11:15:52;;;;;;;7.03;6.32;;;;;;;22.42;55.39;94156.16;5027506;28;20533;-83
2022/08/14 11:18:18;;;;;;;6.70;6.07;;;;;;;22.40;56.32;94143.16;5057091;28;20029;-85
2022/08/14 11:20:47;;;;;;;6.57;5.82;;;;;;;22.27;55.84;94122.09;5017694;28;20029;-83
2022/08/14 11:23:13;;;;;;;7.07;6.37;;;;;;;22.39;56.23;94143.34;5022319;28;20033;-84
2022/08/14 11:25:38;;;;;;;7.10;6.40;;;;;;;22.19;56.28;94111.78;5017343;28;20103;-80
2022/08/14 11:28:04;;;;;;;7.05;6.35;;;;;;;22.33;56.01;94144.22;5035479;28;20032;-84
2022/08/14 11:30:29;;;;;;;6.65;6.05;;;;;;;22.00;56.20;94102.94;5021237;28;20033;-84
2022/08/14 11:32:55;;;;;;;7.10;6.40;;;;;;;21.93;56.82;94110.13;5034013;28;20033;-84
2022/08/14 11:35:22;;;;;;;7.72;6.93;;;;;;;21.92;55.96;94113.75;5036218;28;20108;-83
2022/08/14 11:37:58;;;;;;;7.53;6.80;;;;;;;21.89;56.76;94127.41;5024794;28;20079;-84
2022/08/14 11:40:36;;;;;;;7.10;6.47;;;;;;;21.79;56.72;94123.41;5036374;28;20029;-84
2022/08/14 11:43:03;;;;;;;7.60;6.82;;;;;;;21.95;56.78;94145.06;5019209;28;20057;-83
2022/08/14 11:45:31;;;;;;;7.75;7.05;;;;;;;21.77;56.57;94125.44;5039372;28;20036;-84
2022/08/14 11:47:57;;;;;;;8.23;7.53;;;;;;;21.67;56.88;94119.81;5046429;28;20462;-84